Time;durP1;ratioP1;P1;durP2;ratioP2;P2;SDS_P1;SDS_P2;PMS_P1;PMS_P2;Temp;Humidity;BMP_temperature;BMP_pressure;BME280_temperature;BME280_humidity;BME280_pressure;Samples;Min_cycle;Max_cycle;Signal;HPM_P1;HPM_P2
2021/01/19 00:00:08;;;;;;;24.17;11.13;;;;;;;-4.38;56.80;99720.63;4878977;29;20029;-76
2021/01/19 00:02:34;;;;;;;23.07;10.87;;;;;;;-4.39;56.55;99724.22;4872588;29;20040;-77
2021/01/19 00:05:00;;;;;;;28.40;11.60;;;;;;;-4.47;56.54;99726.81;4882126;29;20128;-78
2021/01/19 00:07:28;;;;;;;25.33;11.37;;;;;;;-4.55;56.77;99730.22;4879218;29;20509;-80
2021/01/19 00:09:56;;;;;;;21.45;10.50;;;;;;;-4.63;56.76;99745.88;4879606;29;20117;-79
2021/01/19 00:12:22;;;;;;;31.83;12.50;;;;;;;-4.69;56.92;99743.91;4879463;29;20099;-79
2021/01/19 00:14:47;;;;;;;26.37;12.30;;;;;;;-4.77;57.27;99746.47;4878219;29;20075;-79
2021/01/19 00:17:13;;;;;;;35.67;11.70;;;;;;;-4.83;57.29;99753.16;4878899;29;20118;-79
2021/01/19 00:19:38;;;;;;;20.00;10.73;;;;;;;-4.86;57.81;99756.09;4878705;29;20033;-79
2021/01/19 00:22:04;;;;;;;30.63;10.77;;;;;;;-4.92;57.96;99752.34;4878365;29;20044;-79
2021/01/19 00:24:29;;;;;;;30.73;10.90;;;;;;;-4.95;58.40;99754.44;4878778;29;20123;-79
2021/01/19 00:26:55;;;;;;;27.30;13.00;;;;;;;-4.93;57.95;99755.06;4878691;29;20043;-79
2021/01/19 00:29:24;;;;;;;21.87;10.87;;;;;;;-4.95;58.19;99754.44;4883207;29;20029;-80
2021/01/19 00:31:51;;;;;;;24.47;11.33;;;;;;;-4.97;58.28;99751.97;4872980;29;20060;-78
2021/01/19 00:34:17;;;;;;;30.37;11.93;;;;;;;-4.98;58.30;99752.94;4878703;29;20036;-78
2021/01/19 00:36:42;;;;;;;28.50;12.63;;;;;;;-4.99;58.14;99762.56;4880463;29;20040;-79
2021/01/19 00:39:08;;;;;;;24.67;12.50;;;;;;;-4.96;58.10;99758.00;4881995;29;20037;-79
2021/01/19 00:41:34;;;;;;;24.63;12.67;;;;;;;-4.94;58.33;99763.88;4882566;29;20040;-80
2021/01/19 00:43:59;;;;;;;28.00;11.67;;;;;;;-4.88;58.10;99752.81;4884606;29;20033;-81
2021/01/19 00:46:25;;;;;;;29.17;11.43;;;;;;;-4.82;58.15;99757.41;4880948;29;20089;-82
2021/01/19 00:49:29;;;;;;;27.83;13.30;;;;;;;-4.76;57.89;99753.34;4900229;29;20028;-82
2021/01/19 00:52:01;;;;;;;34.60;12.90;;;;;;;-4.75;57.90;99752.38;4899243;29;20145;-77
2021/01/19 00:54:26;;;;;;;30.03;12.50;;;;;;;-4.71;57.90;99756.28;4881521;29;20032;-77
2021/01/19 00:59:34;;;;;;;23.63;11.73;;;;;;;-4.74;57.94;99748.78;5177867;23;20060;-82
2021/01/19 01:01:59;;;;;;;;;;;;;;;-4.71;57.34;99756.28;4887209;29;20059;-78
2021/01/19 01:04:25;;;;;;;23.57;9.93;;;;;;;-4.76;57.60;99755.94;4881734;29;19915;-76
2021/01/19 01:06:54;;;;;;;22.37;11.37;;;;;;;-4.76;57.32;99754.19;4882372;29;20036;-79
2021/01/19 01:09:19;;;;;;;25.13;11.53;;;;;;;-4.77;57.68;99751.69;4882353;29;20037;-79
2021/01/19 01:11:57;;;;;;;26.43;10.60;;;;;;;-4.78;57.14;99756.13;4913098;29;20399;-80
2021/01/19 01:14:23;;;;;;;25.30;10.70;;;;;;;-4.84;56.94;99746.31;4904781;29;20055;-79
2021/01/19 01:17:12;;;;;;;26.27;12.17;;;;;;;-4.87;57.59;99744.00;4865686;29;20108;-80
2021/01/19 01:19:58;;;;;;;28.57;11.93;;;;;;;-4.88;57.23;99739.75;4863771;29;20067;-79
2021/01/19 01:22:30;;;;;;;28.87;13.07;;;;;;;-4.88;58.01;99745.81;4883451;29;20505;-80
2021/01/19 01:25:14;;;;;;;36.03;13.93;;;;;;;-4.86;58.04;99740.44;4898835;29;20048;-80
2021/01/19 01:28:10;;;;;;;35.77;15.60;;;;;;;-4.82;57.58;99737.34;4897490;29;20050;-80
2021/01/19 01:30:36;;;;;;;39.17;15.33;;;;;;;-4.79;57.63;99732.81;4851975;29;21551;-79
2021/01/19 01:33:04;;;;;;;30.97;13.13;;;;;;;-4.76;57.35;99735.06;4865483;29;20044;-80
2021/01/19 01:35:30;;;;;;;25.77;11.20;;;;;;;-4.75;57.14;99728.88;4856062;29;20036;-79
2021/01/19 01:38:15;;;;;;;31.73;12.40;;;;;;;-4.75;57.39;99732.28;4881882;29;20124;-78
2021/01/19 01:40:41;;;;;;;27.57;12.73;;;;;;;-4.74;56.88;99736.53;4864195;29;20123;-78
2021/01/19 01:43:14;;;;;;;25.53;12.40;;;;;;;-4.73;57.28;99735.56;4863227;29;20033;-78
2021/01/19 01:45:41;;;;;;;32.53;14.17;;;;;;;-4.75;57.74;99732.28;4878459;29;20033;-78
2021/01/19 01:48:11;;;;;;;24.83;10.83;;;;;;;-4.76;56.48;99738.53;4887297;29;20052;-78
2021/01/19 01:51:49;;;;;;;27.10;10.57;;;;;;;-4.86;56.31;99730.00;4914773;29;20012;-83
2021/01/19 01:54:14;;;;;;;34.75;13.65;;;;;;;-4.91;57.61;99734.88;4854066;29;20056;-80
2021/01/19 01:56:40;;;;;;;26.87;11.83;;;;;;;-4.91;56.98;99734.88;4864594;29;20041;-78
2021/01/19 01:59:05;;;;;;;24.80;11.40;;;;;;;-4.93;56.79;99734.22;4863317;29;20445;-78
2021/01/19 02:01:31;;;;;;;23.77;10.47;;;;;;;-4.91;56.95;99740.09;4862901;29;20557;-80
2021/01/19 02:04:36;;;;;;;20.03;9.63;;;;;;;-4.87;56.98;99729.19;4854457;29;20056;-80
2021/01/19 02:21:32;;;;;;;15.45;8.18;;;;;;;-4.71;56.37;99717.97;4905970;29;20054;-80
2021/01/19 02:24:03;;;;;;;20.70;8.07;;;;;;;-4.67;55.94;99721.88;4902694;29;20084;-80
2021/01/19 02:26:57;;;;;;;21.43;8.30;;;;;;;-4.65;56.26;99719.13;4929565;28;20031;-82
2021/01/19 02:29:25;;;;;;;16.57;7.87;;;;;;;-4.64;56.21;99715.53;4902422;29;20061;-80
2021/01/19 02:34:59;;;;;;;19.80;8.93;;;;;;;-4.63;55.80;99716.34;4904546;29;20047;-80
2021/01/19 02:37:30;;;;;;;13.73;8.10;;;;;;;-4.61;55.70;99722.22;4899611;29;20035;-79
2021/01/19 02:40:06;;;;;;;14.87;7.67;;;;;;;-4.62;55.61;99731.06;4903752;29;20028;-79
2021/01/19 02:42:49;;;;;;;15.70;8.00;;;;;;;-4.63;55.43;99727.59;4910316;29;20032;-79
2021/01/19 02:45:15;;;;;;;17.30;8.57;;;;;;;-4.62;55.04;99716.19;4917384;29;20019;-80
2021/01/19 02:47:41;;;;;;;16.70;8.40;;;;;;;-4.62;55.24;99724.03;4910794;29;20135;-79
2021/01/19 02:50:10;;;;;;;22.97;8.37;;;;;;;-4.62;55.43;99721.41;4896005;29;20028;-82
2021/01/19 02:52:41;;;;;;;21.00;8.43;;;;;;;-4.63;54.67;99721.59;4881700;29;20028;-81
2021/01/19 02:55:07;;;;;;;18.03;7.73;;;;;;;-4.66;55.71;99725.31;4869609;29;20108;-81
2021/01/19 02:57:52;;;;;;;18.43;8.50;;;;;;;-4.67;55.60;99728.91;4879715;29;20036;-79
2021/01/19 03:00:21;;;;;;;17.23;7.50;;;;;;;-4.69;55.16;99721.25;4879642;29;20474;-79
2021/01/19 03:02:49;;;;;;;16.13;7.53;;;;;;;-4.70;55.17;99717.00;4879842;29;20036;-79
2021/01/19 03:05:16;;;;;;;11.82;6.00;;;;;;;-4.70;55.41;99724.00;4891572;29;20047;-78
2021/01/19 03:07:44;;;;;;;16.87;7.67;;;;;;;-4.73;55.10;99717.31;4898300;29;20119;-79
2021/01/19 03:10:15;;;;;;;15.00;6.43;;;;;;;-4.73;55.06;99722.53;4898558;29;20036;-79
2021/01/19 03:12:43;;;;;;;17.17;7.83;;;;;;;-4.74;55.10;99720.09;4888617;29;20332;-79
2021/01/19 03:15:15;;;;;;;18.02;9.40;;;;;;;-4.74;55.41;99720.09;5293283;23;20054;-82
2021/01/19 03:17:43;;;;;;;20.50;9.63;;;;;;;-4.75;55.42;99719.25;4894249;29;20069;-79
2021/01/19 03:20:37;;;;;;;16.83;8.30;;;;;;;-4.73;55.87;99719.13;4894836;29;20041;-81
2021/01/19 03:25:52;;;;;;;29.67;11.67;;;;;;;-4.76;55.80;99709.81;5150835;23;20064;-81
2021/01/19 03:28:43;;;;;;;33.23;13.63;;;;;;;-4.78;56.01;99713.56;4884363;29;20119;-82
2021/01/19 03:31:09;;;;;;;30.00;13.50;;;;;;;-4.80;56.37;99715.50;4894656;29;20087;-78
2021/01/19 03:33:35;;;;;;;38.47;13.13;;;;;;;-4.84;55.72;99707.97;4878618;29;20115;-77
2021/01/19 03:36:00;;;;;;;25.63;12.07;;;;;;;-4.85;56.36;99706.34;4879190;29;20083;-77
2021/01/19 03:38:26;;;;;;;27.90;12.57;;;;;;;-4.88;56.33;99704.06;4887609;29;20041;-78
2021/01/19 03:41:03;;;;;;;23.77;10.33;;;;;;;-4.91;56.38;99696.53;4872323;29;20061;-81
2021/01/19 03:43:29;;;;;;;21.33;10.05;;;;;;;-4.93;56.20;99705.50;4880375;29;20028;-79
2021/01/19 03:46:16;;;;;;;17.53;8.23;;;;;;;-4.93;56.98;99716.78;4882827;29;20517;-82
2021/01/19 03:48:41;;;;;;;16.10;7.83;;;;;;;-4.95;56.11;99713.50;4867172;29;20505;-77
2021/01/19 03:51:07;;;;;;;16.73;8.40;;;;;;;-4.97;55.90;99712.84;4878966;29;20028;-78
2021/01/19 03:53:32;;;;;;;17.90;8.70;;;;;;;-4.95;56.08;99712.69;4878826;29;20020;-79
2021/01/19 03:55:58;;;;;;;17.03;7.40;;;;;;;-4.94;55.83;99712.53;4878507;29;20033;-78
2021/01/19 03:58:23;;;;;;;14.73;7.57;;;;;;;-4.95;55.87;99713.50;4879321;29;20500;-78
2021/01/19 04:00:48;;;;;;;19.50;8.63;;;;;;;-4.94;55.86;99716.91;4879101;29;20043;-78
2021/01/19 04:03:14;;;;;;;16.37;7.70;;;;;;;-4.93;56.52;99713.34;4878428;29;20032;-78
2021/01/19 04:05:39;;;;;;;14.67;7.07;;;;;;;-4.96;55.77;99706.66;4872661;29;20032;-78
2021/01/19 04:08:05;;;;;;;15.93;7.30;;;;;;;-4.93;56.22;99715.94;4867776;29;20045;-77
2021/01/19 04:10:30;;;;;;;18.63;6.70;;;;;;;-4.91;55.97;99714.81;4869742;29;20033;-78
2021/01/19 04:12:55;;;;;;;12.33;6.77;;;;;;;-4.90;56.07;99711.22;4882644;29;20036;-79
2021/01/19 04:15:21;;;;;;;12.67;7.03;;;;;;;-4.87;55.56;99718.75;4879785;29;20040;-79
2021/01/19 04:17:46;;;;;;;16.00;6.87;;;;;;;-4.86;55.57;99723.00;4870290;29;20072;-79
2021/01/19 04:20:12;;;;;;;17.57;7.20;;;;;;;-4.83;55.30;99734.91;4882900;29;20035;-78
2021/01/19 04:22:37;;;;;;;13.27;6.83;;;;;;;-4.84;55.39;99731.47;4883626;29;20036;-79
2021/01/19 04:25:05;;;;;;;16.37;7.50;;;;;;;-4.82;55.06;99733.94;4877214;29;20568;-79
2021/01/19 04:27:31;;;;;;;16.27;7.30;;;;;;;-4.82;55.71;99739.16;4866043;29;20399;-79
2021/01/19 04:29:56;;;;;;;16.97;7.57;;;;;;;-4.80;55.13;99752.84;4866169;29;20062;-81
2021/01/19 04:32:22;;;;;;;17.77;8.13;;;;;;;-4.81;55.76;99743.38;4866373;29;20057;-79
2021/01/19 04:35:02;;;;;;;17.23;7.20;;;;;;;-4.78;55.87;99744.88;4875219;29;20028;-82
2021/01/19 04:37:36;;;;;;;15.37;7.63;;;;;;;-4.78;56.27;99747.50;4866867;29;20025;-80
2021/01/19 04:40:10;;;;;;;16.60;7.90;;;;;;;-4.78;55.88;99758.72;4886246;29;20562;-81
2021/01/19 04:42:37;;;;;;;14.77;8.10;;;;;;;-4.80;55.62;99750.22;4863101;29;20044;-80
2021/01/19 04:45:07;;;;;;;14.70;7.47;;;;;;;-4.80;56.07;99754.66;4882737;29;20029;-79
2021/01/19 04:47:33;;;;;;;13.85;7.88;;;;;;;-4.81;55.87;99753.81;4888622;29;20491;-80
2021/01/19 04:50:03;;;;;;;15.73;7.70;;;;;;;-4.80;56.06;99759.88;4882119;29;20031;-79
2021/01/19 04:52:31;;;;;;;16.67;8.70;;;;;;;-4.79;55.91;99769.34;4864534;29;20021;-79
2021/01/19 04:55:07;;;;;;;13.95;6.18;;;;;;;-4.79;56.07;99764.91;4879426;29;20064;-80
2021/01/19 04:57:38;;;;;;;22.77;9.33;;;;;;;-4.79;56.07;99769.34;4877962;29;20069;-80
2021/01/19 05:00:12;;;;;;;22.00;9.23;;;;;;;-4.80;55.99;99768.50;4880834;29;20040;-78
2021/01/19 05:02:50;;;;;;;15.60;8.33;;;;;;;-4.79;56.40;99777.97;4863470;29;20037;-78
2021/01/19 05:05:41;;;;;;;10.02;5.85;;;;;;;-4.80;56.54;99776.31;4871213;29;20040;-79
2021/01/19 05:08:16;;;;;;;22.17;8.40;;;;;;;-4.78;55.86;99781.41;4844789;29;20046;-77
2021/01/19 05:10:48;;;;;;;17.80;8.20;;;;;;;-4.78;55.95;99776.19;4855813;29;20037;-79
2021/01/19 05:13:14;;;;;;;18.70;8.10;;;;;;;-4.80;55.93;99786.75;4847418;29;20041;-80
2021/01/19 05:15:47;;;;;;;16.53;8.47;;;;;;;-4.81;56.07;99787.72;4863943;29;20061;-79
2021/01/19 05:18:16;;;;;;;15.03;8.27;;;;;;;-4.81;56.64;99785.13;4863198;29;20566;-78
2021/01/19 05:20:45;;;;;;;14.67;8.37;;;;;;;-4.81;55.92;99779.91;4864189;29;20033;-77
2021/01/19 05:23:21;;;;;;;15.30;7.57;;;;;;;-4.82;56.47;99788.72;4873235;29;20122;-79
2021/01/19 05:26:31;;;;;;;17.67;7.50;;;;;;;-4.82;55.71;99789.53;4875399;29;20059;-80
2021/01/19 05:28:56;;;;;;;18.23;7.30;;;;;;;-4.85;56.27;99782.00;4866602;29;20131;-80
2021/01/19 05:31:27;;;;;;;18.03;8.13;;;;;;;-4.86;55.92;99790.84;4858218;29;20491;-79
2021/01/19 05:33:52;;;;;;;18.70;8.10;;;;;;;-4.87;56.13;99783.16;5491306;23;20068;-79
2021/01/19 05:36:19;;;;;;;18.87;8.13;;;;;;;-4.85;56.12;99794.25;4888386;29;20115;-79
2021/01/19 05:38:55;;;;;;;17.63;7.37;;;;;;;-4.85;56.36;99789.84;4880267;29;20032;-78
2021/01/19 05:41:35;;;;;;;15.37;7.47;;;;;;;-4.84;56.57;99796.69;4892843;29;20040;-78
2021/01/19 05:44:14;;;;;;;17.57;8.53;;;;;;;-4.86;56.08;99788.22;4875280;29;20115;-78
2021/01/19 05:46:42;;;;;;;13.23;7.53;;;;;;;-4.85;56.58;99795.06;4879301;29;20033;-78
2021/01/19 05:49:14;;;;;;;21.90;8.18;;;;;;;-4.84;56.01;99794.09;4881899;29;20577;-78
2021/01/19 05:51:42;;;;;;;21.27;9.23;;;;;;;-4.84;56.22;99801.91;4880970;29;20039;-78
2021/01/19 05:54:10;;;;;;;14.80;8.40;;;;;;;-4.82;55.92;99794.75;4881389;29;20056;-78
2021/01/19 05:56:37;;;;;;;18.40;8.68;;;;;;;-4.77;56.58;99799.50;4881175;29;20037;-78
2021/01/19 05:59:04;;;;;;;14.63;9.10;;;;;;;-4.73;56.20;99802.63;4881311;29;20622;-78
2021/01/19 06:01:33;;;;;;;17.40;8.67;;;;;;;-4.69;56.02;99814.38;4881249;29;20028;-78
2021/01/19 06:04:01;;;;;;;16.77;8.17;;;;;;;-4.68;55.61;99811.59;4880784;29;20049;-78
2021/01/19 06:06:30;;;;;;;15.63;8.00;;;;;;;-4.66;55.30;99820.09;4880956;29;20430;-78
2021/01/19 06:09:03;;;;;;;20.77;8.27;;;;;;;-4.68;55.73;99811.59;4880880;29;20570;-78
2021/01/19 06:11:29;;;;;;;24.33;8.97;;;;;;;-4.66;55.19;99812.25;4880832;29;20028;-78
2021/01/19 06:13:56;;;;;;;19.67;8.47;;;;;;;-4.66;55.66;99812.25;4880947;29;20084;-78
2021/01/19 06:16:25;;;;;;;18.57;8.97;;;;;;;-4.62;55.45;99818.00;4881075;29;20451;-78
2021/01/19 06:18:52;;;;;;;18.63;9.63;;;;;;;-4.56;55.79;99819.97;4880461;29;20552;-78
2021/01/19 06:21:29;;;;;;;22.77;8.77;;;;;;;-4.52;55.44;99818.69;4897930;29;20059;-78
2021/01/19 06:23:55;;;;;;;24.50;11.17;;;;;;;-4.45;54.61;99826.69;4880739;29;20824;-78
2021/01/19 06:26:21;;;;;;;29.00;10.17;;;;;;;-4.46;54.61;99830.28;4880879;29;20064;-79
2021/01/19 06:28:46;;;;;;;17.67;9.67;;;;;;;-4.40;54.60;99824.41;4880624;29;20119;-78
2021/01/19 06:31:19;;;;;;;24.83;10.90;;;;;;;-4.37;54.31;99828.50;4881176;29;20063;-79
2021/01/19 06:33:47;;;;;;;22.93;9.43;;;;;;;-4.30;54.65;99832.13;4880071;29;20049;-78
2021/01/19 06:36:14;;;;;;;23.80;10.07;;;;;;;-4.26;54.13;99835.22;4880978;29;20055;-78
2021/01/19 06:38:48;;;;;;;23.87;10.03;;;;;;;-4.19;54.42;99838.84;4880504;29;20041;-78
2021/01/19 06:41:16;;;;;;;17.23;8.40;;;;;;;-4.14;54.09;99844.38;4880122;29;20123;-78
2021/01/19 06:43:46;;;;;;;28.88;11.35;;;;;;;-4.10;53.58;99845.72;4880037;29;20037;-78
2021/01/19 06:46:13;;;;;;;19.70;8.57;;;;;;;-4.04;53.45;99845.06;4880373;29;20140;-79
2021/01/19 06:48:42;;;;;;;21.67;9.40;;;;;;;-4.02;53.60;99842.28;4880817;29;20044;-79
2021/01/19 06:51:10;;;;;;;19.27;9.23;;;;;;;-3.98;53.66;99840.19;4880692;29;20024;-79
2021/01/19 06:53:45;;;;;;;18.83;8.68;;;;;;;-3.97;52.88;99844.44;4880755;29;20028;-78
2021/01/19 06:56:12;;;;;;;15.93;9.00;;;;;;;-3.94;53.31;99858.00;4880502;29;20040;-79
2021/01/19 06:58:55;;;;;;;20.17;9.33;;;;;;;-3.92;53.17;99863.03;4880583;29;20121;-79
2021/01/19 07:01:28;;;;;;;21.07;9.67;;;;;;;-3.93;53.75;99870.09;4880389;29;20103;-79
2021/01/19 07:04:12;;;;;;;20.10;8.20;;;;;;;-3.88;53.19;99861.75;4880172;29;20032;-79
2021/01/19 07:07:06;;;;;;;44.50;16.80;;;;;;;-3.85;53.34;99864.03;4879857;29;20068;-78
2021/01/19 07:09:57;;;;;;;24.97;9.80;;;;;;;-3.81;53.15;99856.69;4880543;29;20037;-78
2021/01/19 07:12:30;;;;;;;23.63;10.63;;;;;;;-3.75;53.46;99859.50;4880639;29;20056;-79
2021/01/19 07:15:02;;;;;;;24.53;10.77;;;;;;;-3.64;53.32;99866.16;4880619;29;20036;-78
2021/01/19 07:17:42;;;;;;;20.50;8.90;;;;;;;-3.57;52.59;99856.69;4880410;29;20092;-79
2021/01/19 07:20:13;;;;;;;19.30;9.63;;;;;;;-3.45;52.63;99857.19;4880603;29;20088;-79
2021/01/19 07:23:01;;;;;;;18.23;8.97;;;;;;;-3.31;52.37;99860.94;4880592;29;20032;-78
2021/01/19 07:25:28;;;;;;;17.08;8.15;;;;;;;-3.17;51.87;99866.47;4881328;29;20064;-78
2021/01/19 07:27:55;;;;;;;20.37;9.10;;;;;;;-3.08;50.96;99857.63;4885074;29;20040;-79
2021/01/19 07:30:22;;;;;;;17.90;8.60;;;;;;;-2.97;50.65;99861.72;4887997;29;20036;-80
2021/01/19 07:32:50;;;;;;;31.17;12.70;;;;;;;-2.89;50.82;99861.69;4889290;29;20503;-79
2021/01/19 07:35:17;;;;;;;18.63;8.05;;;;;;;-2.78;50.55;99857.91;4886543;29;20068;-79
2021/01/19 07:37:42;;;;;;;14.30;7.67;;;;;;;-2.65;50.20;99865.22;4879312;29;20104;-81
2021/01/19 07:40:19;;;;;;;14.60;6.67;;;;;;;-2.53;49.45;99865.66;4879915;29;20032;-81
2021/01/19 07:42:45;;;;;;;18.30;7.57;;;;;;;-2.43;49.41;99867.09;4879300;29;20024;-80
2021/01/19 07:45:11;;;;;;;15.07;7.43;;;;;;;-2.34;48.18;99865.25;4879063;29;20091;-80
2021/01/19 07:47:39;;;;;;;11.57;5.37;;;;;;;-2.30;47.97;99870.97;4879393;29;20024;-78
2021/01/19 07:50:10;;;;;;;15.10;6.70;;;;;;;-2.22;48.21;99880.56;4864256;29;20052;-78
2021/01/19 07:52:40;;;;;;;10.73;6.17;;;;;;;-2.15;48.19;99890.22;4879782;29;20036;-81
2021/01/19 07:55:23;;;;;;;10.83;6.27;;;;;;;-2.09;48.12;99888.69;4879324;29;20478;-81
2021/01/19 07:57:51;;;;;;;16.33;6.77;;;;;;;-2.06;48.02;99883.13;4881411;29;20033;-82
2021/01/19 08:04:15;;;;;;;;;;;;;;;-1.93;48.11;99893.03;4828181;29;20099;-82
2021/01/19 08:07:48;;;;;;;16.53;6.57;;;;;;;-1.87;47.95;99897.56;4904725;29;20034;-82
2021/01/19 08:11:06;;;;;;;15.47;5.97;;;;;;;-1.84;47.91;99894.63;4812101;29;20042;-82
2021/01/19 08:14:23;;;;;;;13.10;5.80;;;;;;;-1.75;48.39;99892.75;4774925;29;20125;-82
2021/01/19 08:17:42;;;;;;;10.47;5.77;;;;;;;-1.68;47.56;99890.25;4823088;29;20492;-82
2021/01/19 08:20:08;;;;;;;15.70;6.00;;;;;;;-1.63;46.58;99893.97;4812125;29;20033;-82
2021/01/19 08:23:41;;;;;;;14.93;6.10;;;;;;;-1.54;47.45;99891.31;4864760;29;20047;-81
2021/01/19 08:26:34;;;;;;;15.37;6.63;;;;;;;-1.45;47.25;99906.00;4858781;29;20500;-82
2021/01/19 08:29:39;;;;;;;14.07;6.17;;;;;;;-1.42;46.89;99900.38;4858498;29;20130;-82
2021/01/19 08:32:35;;;;;;;15.93;6.37;;;;;;;-1.37;46.57;99897.22;4860169;29;20579;-81
2021/01/19 08:35:02;;;;;;;16.10;6.30;;;;;;;-1.35;47.05;99897.88;4848411;29;20063;-81
2021/01/19 08:37:35;;;;;;;11.23;5.63;;;;;;;-1.37;46.58;99884.91;4860796;29;20117;-81
2021/01/19 08:40:00;;;;;;;9.32;5.63;;;;;;;-1.31;46.34;99894.72;4846715;29;20050;-81
2021/01/19 08:42:28;;;;;;;11.07;6.53;;;;;;;-1.28;47.00;99896.19;4860129;29;20034;-81
2021/01/19 08:44:58;;;;;;;16.53;6.83;;;;;;;-1.23;46.82;99896.47;4842709;29;20606;-81
2021/01/19 08:47:26;;;;;;;15.77;7.77;;;;;;;-1.14;46.98;99903.25;4845812;29;20041;-81
2021/01/19 08:49:53;;;;;;;13.57;6.68;;;;;;;-1.06;47.10;99909.44;4844349;29;20041;-81
2021/01/19 08:52:26;;;;;;;11.77;5.60;;;;;;;-1.04;46.33;99902.19;4844197;29;20045;-81
2021/01/19 08:54:53;;;;;;;14.07;6.50;;;;;;;-0.97;46.39;99914.41;4847359;29;20037;-81
2021/01/19 08:57:21;;;;;;;12.73;6.18;;;;;;;-0.91;46.06;99906.84;4845781;29;20068;-81
2021/01/19 09:00:34;;;;;;;13.57;6.53;;;;;;;-0.85;45.73;99908.75;4860090;29;20072;-81
2021/01/19 09:03:22;;;;;;;11.23;5.37;;;;;;;-0.83;45.44;99904.13;4880858;29;20037;-81
2021/01/19 09:05:48;;;;;;;14.45;6.70;;;;;;;-0.79;46.18;99902.78;4883082;29;20120;-81
2021/01/19 09:08:18;;;;;;;10.40;5.90;;;;;;;-0.75;45.95;99906.66;4881978;29;20124;-81
2021/01/19 09:10:45;;;;;;;12.57;6.47;;;;;;;-0.74;45.19;99900.41;4882417;29;20033;-81
2021/01/19 09:13:11;;;;;;;12.90;6.30;;;;;;;-0.71;45.53;99897.44;4882032;29;20487;-81
2021/01/19 09:15:42;;;;;;;12.50;6.43;;;;;;;-0.69;45.22;99889.38;4884680;29;20033;-81
2021/01/19 09:18:15;;;;;;;11.55;6.03;;;;;;;-0.71;45.08;99894.81;4880278;29;20044;-81
2021/01/19 09:20:42;;;;;;;12.52;6.13;;;;;;;-0.67;45.45;99887.41;4881975;29;20088;-82
2021/01/19 09:23:10;;;;;;;12.48;6.57;;;;;;;-0.67;45.50;99897.91;4880006;29;20043;-81
2021/01/19 09:25:39;;;;;;;11.75;6.40;;;;;;;-0.67;45.30;99890.81;4866112;29;20037;-81
2021/01/19 09:28:05;;;;;;;16.50;7.23;;;;;;;-0.60;45.77;99887.47;4852863;29;20498;-81
2021/01/19 09:30:35;;;;;;;13.57;7.40;;;;;;;-0.55;45.47;99880.69;4883657;29;20028;-81
2021/01/19 09:33:08;;;;;;;13.95;6.80;;;;;;;-0.50;46.10;99882.72;4882639;29;20048;-81
2021/01/19 09:35:35;;;;;;;14.82;7.68;;;;;;;-0.46;45.50;99873.50;4880312;29;20446;-81
2021/01/19 09:38:01;;;;;;;11.73;7.13;;;;;;;-0.41;45.39;99875.59;4882971;29;20048;-80
2021/01/19 09:40:36;;;;;;;13.90;6.78;;;;;;;-0.36;45.74;99874.03;4882752;29;20041;-81
2021/01/19 09:43:12;;;;;;;12.30;7.22;;;;;;;-0.30;45.84;99869.06;4881285;29;20037;-81
2021/01/19 09:49:40;;;;;;;10.18;6.72;;;;;;;-0.27;44.93;99866.03;4886711;29;20137;-82
2021/01/19 10:06:34;;;;;;;16.42;7.97;;;;;;;-0.14;45.27;99833.84;4850305;29;20092;-81
2021/01/19 10:16:26;;;;;;;13.40;8.13;;;;;;;-0.01;44.41;99828.72;4762445;30;20075;-81
2021/01/19 10:18:52;;;;;;;11.50;6.28;;;;;;;-0.04;44.56;99823.81;4752705;30;20523;-80
2021/01/19 10:21:31;;;;;;;14.65;6.53;;;;;;;0.01;44.22;99812.75;4810174;29;20080;-80
2021/01/19 10:23:56;;;;;;;15.70;7.63;;;;;;;0.06;43.88;99816.44;4873706;29;20062;-80
2021/01/19 10:26:28;;;;;;;13.18;6.78;;;;;;;0.10;44.42;99809.78;4880255;29;20033;-79
2021/01/19 10:28:56;;;;;;;16.25;6.63;;;;;;;0.18;44.23;99805.41;4879956;29;20031;-80
2021/01/19 10:31:24;;;;;;;15.52;6.57;;;;;;;0.21;43.91;99797.13;4879386;29;20041;-79
2021/01/19 10:33:56;;;;;;;13.40;7.05;;;;;;;0.29;44.83;99799.63;4880184;29;20105;-81
2021/01/19 10:36:24;;;;;;;20.92;8.13;;;;;;;0.30;44.61;99788.13;4879714;29;20049;-80
2021/01/19 10:38:49;;;;;;;17.23;7.47;;;;;;;0.37;44.02;99788.19;4880352;29;20411;-80
2021/01/19 10:41:26;;;;;;;13.20;6.47;;;;;;;0.39;43.57;99775.63;4881725;29;20112;-80
2021/01/19 10:43:52;;;;;;;12.52;6.32;;;;;;;0.46;43.91;99776.50;4880230;29;20406;-80
2021/01/19 10:46:24;;;;;;;14.23;6.05;;;;;;;0.49;42.94;99776.13;4879535;29;20082;-80
2021/01/19 10:49:07;;;;;;;9.63;5.78;;;;;;;0.50;42.91;99769.84;4882150;29;20025;-80
2021/01/19 10:51:34;;;;;;;10.52;6.65;;;;;;;0.57;43.34;99770.69;4878058;29;20048;-80
2021/01/19 10:54:06;;;;;;;12.95;7.20;;;;;;;0.61;42.63;99750.06;4879794;29;20076;-80
2021/01/19 10:56:32;;;;;;;13.57;6.80;;;;;;;0.68;42.84;99752.75;4878419;29;20036;-80
2021/01/19 10:58:58;;;;;;;13.25;6.55;;;;;;;0.70;42.48;99742.84;4879375;29;20407;-80
2021/01/19 11:01:27;;;;;;;10.80;5.82;;;;;;;0.73;42.81;99740.63;4879747;29;20044;-80
2021/01/19 11:03:53;;;;;;;10.23;5.82;;;;;;;0.75;42.26;99743.06;4877682;29;20026;-80
2021/01/19 11:06:19;;;;;;;12.40;6.05;;;;;;;0.75;42.21;99738.59;4878405;29;20033;-80
2021/01/19 11:08:44;;;;;;;10.23;4.95;;;;;;;0.78;41.50;99737.41;4878071;29;20120;-81
2021/01/19 11:11:11;;;;;;;11.88;5.57;;;;;;;0.75;41.48;99735.19;4878089;29;20036;-80
2021/01/19 11:13:36;;;;;;;8.00;4.97;;;;;;;0.76;41.84;99729.69;4879038;29;20089;-80
2021/01/19 11:16:05;;;;;;;11.82;6.25;;;;;;;0.84;41.38;99741.88;4879648;29;20037;-81
2021/01/19 11:32:43;;;;;;;8.52;5.45;;;;;;;1.09;41.09;99718.50;4805124;29;20537;-81
2021/01/19 11:38:07;;;;;;;12.00;6.43;;;;;;;1.05;41.79;99708.56;4862804;29;20084;-81
2021/01/19 11:40:33;;;;;;;11.82;7.03;;;;;;;1.05;42.64;99704.13;4860319;29;20367;-80
2021/01/19 11:42:58;;;;;;;14.27;6.95;;;;;;;1.06;41.78;99707.56;4846173;29;20029;-80
2021/01/19 11:45:24;;;;;;;17.30;6.97;;;;;;;1.06;40.50;99704.91;4844773;29;20767;-80
2021/01/19 11:47:50;;;;;;;8.23;5.22;;;;;;;1.06;40.88;99700.47;4844315;29;20025;-80
2021/01/19 11:50:15;;;;;;;13.48;6.80;;;;;;;1.08;40.23;99706.34;4875656;29;20041;-80
2021/01/19 11:52:41;;;;;;;13.52;6.18;;;;;;;1.11;40.66;99695.41;4883359;29;20033;-81
2021/01/19 11:55:07;;;;;;;12.90;5.45;;;;;;;1.19;40.14;99691.00;4887400;29;20089;-80
2021/01/19 11:57:33;;;;;;;9.30;5.20;;;;;;;1.20;39.57;99697.88;4889151;29;20100;-80
2021/01/19 11:59:58;;;;;;;11.15;5.50;;;;;;;1.22;40.23;99694.03;4888936;29;20040;-80
2021/01/19 12:02:24;;;;;;;9.88;5.95;;;;;;;1.28;40.40;99689.78;4883929;29;20120;-81
2021/01/19 12:04:49;;;;;;;9.70;4.72;;;;;;;1.33;40.45;99694.47;4878517;29;20037;-81
2021/01/19 12:07:14;;;;;;;8.18;5.32;;;;;;;1.37;40.28;99687.78;4877735;29;20033;-80
2021/01/19 12:09:40;;;;;;;9.48;5.47;;;;;;;1.40;40.07;99688.22;4877420;29;20554;-80
2021/01/19 12:12:06;;;;;;;9.80;6.10;;;;;;;1.44;40.49;99681.53;4876490;29;20025;-80
2021/01/19 12:14:31;;;;;;;9.25;4.90;;;;;;;1.48;39.67;99681.09;4876979;29;20414;-80
2021/01/19 12:16:58;;;;;;;9.02;5.38;;;;;;;1.54;40.36;99690.88;4876155;29;20100;-81
2021/01/19 12:19:25;;;;;;;14.18;6.68;;;;;;;1.59;40.26;99688.44;4876555;29;20025;-80
2021/01/19 12:21:54;;;;;;;9.95;5.68;;;;;;;1.62;40.53;99688.03;4877279;29;20121;-81
2021/01/19 12:24:40;;;;;;;;;;;;;;;1.63;39.85;99681.75;4888589;29;20088;-81
2021/01/19 12:27:10;;;;;;;9.68;5.53;;;;;;;1.62;40.40;99674.84;4879550;29;19912;-81
2021/01/19 12:29:36;;;;;;;9.77;5.50;;;;;;;1.67;41.01;99682.97;4877380;29;20066;-81
2021/01/19 12:32:04;;;;;;;10.35;5.25;;;;;;;1.70;40.15;99687.84;4878894;29;20037;-81
2021/01/19 12:34:30;;;;;;;11.45;5.95;;;;;;;1.74;40.55;99675.06;4881743;29;20025;-81
2021/01/19 12:36:56;;;;;;;12.70;5.75;;;;;;;1.74;40.72;99670.59;4881663;29;20037;-81
2021/01/19 12:39:25;;;;;;;10.43;5.55;;;;;;;1.76;40.15;99675.69;4885390;29;20029;-82
2021/01/19 12:42:33;;;;;;;9.77;5.53;;;;;;;1.78;40.99;99675.47;4883145;29;20036;-81
2021/01/19 12:45:15;;;;;;;;;;;;;;;1.78;39.97;99662.28;4884533;29;20043;-81
2021/01/19 12:48:00;;;;;;;10.00;5.72;;;;;;;1.76;40.85;99650.09;4878786;29;19923;-81
2021/01/19 12:51:25;;;;;;;12.27;6.45;;;;;;;1.76;40.69;99652.75;4846636;29;20716;-81
2021/01/19 13:15:27;;;;;;;9.40;5.22;;;;;;;1.85;40.00;99652.53;4848227;29;20057;-81
2021/01/19 13:25:19;;;;;;;8.80;5.40;;;;;;;1.75;39.02;99642.41;4822622;29;20090;-81
2021/01/19 13:28:27;;;;;;;10.57;4.82;;;;;;;1.88;40.37;99660.03;4790409;29;20051;-81